Norris Arm, Canada
Current Conditions -  °F | °C
As of 11:00 PM on Sunday 25 Jan 2015 (Local Time) from CYQX Reporting Station
Broken Clouds Broken Clouds  
Wind Chill: 16°   Ceiling: 2500
Heat Index: 30°   Visibility: 20mi
Dew Point: 23°   Wind: 24mph
Humidity: 75%   Direction: 240°WSW
Pressure: 29.23"   Gusts: 33mph
Location:  49.08°N, 55.27°W
Report Text: CYQX 260200Z 24021G29KT 20SM BKN025 BKN037 M01/M05 A2923 RMK SC6SC1 SLP903
Loading
Personal Weather Stations






























Interactive Weather Map New forecast layout! Learn more

10-Day Weather Forecast

Advertisements
Track Severe Weather on mobile